Time;durP1;ratioP1;P1;durP2;ratioP2;P2;SDS_P1;SDS_P2;PMS_P1;PMS_P2;Temp;Humidity;BMP_temperature;BMP_pressure;BME280_temperature;BME280_humidity;BME280_pressure;Samples;Min_cycle;Max_cycle;Signal;HPM_P1;HPM_P2
2022/12/24 00:01:24;;;;;;;30.88;16.08;;;6.50;99.90;;;;;;5068383;28;20044;-76
2022/12/24 00:03:50;;;;;;;35.72;17.08;;;6.50;99.90;;;;;;5044782;28;20071;-76
2022/12/24 00:06:21;;;;;;;32.08;16.42;;;6.50;99.90;;;;;;5039594;28;20052;-76
2022/12/24 00:08:49;;;;;;;29.85;14.75;;;6.50;99.90;;;;;;5073888;28;20040;-76
2022/12/24 00:11:15;;;;;;;30.00;15.75;;;6.50;99.90;;;;;;5050655;28;20774;-76
2022/12/24 00:13:41;;;;;;;33.53;16.30;;;6.40;99.90;;;;;;5040247;28;20052;-76
2022/12/24 00:16:10;;;;;;;35.05;15.60;;;6.50;99.90;;;;;;5053010;28;20048;-76
2022/12/24 00:18:35;;;;;;;35.40;16.05;;;6.40;99.90;;;;;;5037498;28;20033;-76
2022/12/24 00:21:02;;;;;;;33.70;16.63;;;6.50;99.90;;;;;;5039052;28;20089;-75
2022/12/24 00:23:29;;;;;;;32.80;15.75;;;6.50;99.90;;;;;;5042632;28;20632;-76
2022/12/24 00:25:55;;;;;;;35.38;15.88;;;6.40;99.90;;;;;;5052816;28;20079;-77
2022/12/24 00:28:21;;;;;;;36.53;17.55;;;6.40;99.90;;;;;;5038968;28;20113;-77
2022/12/24 00:30:46;;;;;;;37.35;19.35;;;6.40;99.90;;;;;;5037172;28;20802;-77
2022/12/24 00:33:12;;;;;;;35.22;19.15;;;6.50;99.90;;;;;;5056790;28;20102;-77
2022/12/24 00:35:39;;;;;;;36.60;16.80;;;6.40;99.90;;;;;;5038767;28;20723;-76
2022/12/24 00:38:05;;;;;;;32.45;16.67;;;6.40;99.90;;;;;;5035792;28;20059;-77
2022/12/24 00:40:31;;;;;;;42.45;20.20;;;6.40;99.90;;;;;;5041506;28;20040;-76
2022/12/24 00:42:57;;;;;;;30.40;16.38;;;6.70;99.90;;;;;;5041641;28;20059;-78
2022/12/24 00:45:23;;;;;;;31.98;16.05;;;6.90;99.90;;;;;;5042079;28;20457;-77
2022/12/24 00:47:49;;;;;;;31.25;16.58;;;6.40;99.90;;;;;;5043676;28;20068;-78
2022/12/24 00:50:14;;;;;;;30.27;15.90;;;6.50;99.90;;;;;;5028245;28;20159;-77
2022/12/24 00:52:40;;;;;;;34.30;16.00;;;6.40;99.90;;;;;;5057027;28;20496;-77
2022/12/24 00:55:10;;;;;;;31.35;15.85;;;6.50;99.90;;;;;;5040112;28;20036;-78
2022/12/24 00:57:36;;;;;;;30.80;15.90;;;6.50;99.90;;;;;;5052145;28;20098;-77
2022/12/24 01:00:02;;;;;;;36.03;17.30;;;6.50;99.90;;;;;;5038129;28;20129;-76
2022/12/24 01:02:28;;;;;;;31.55;16.73;;;6.50;99.90;;;;;;5047042;28;20036;-77
2022/12/24 01:05:09;;;;;;;35.63;17.35;;;6.50;99.90;;;;;;5062155;28;20041;-77
2022/12/24 01:07:37;;;;;;;34.58;16.52;;;6.90;99.90;;;;;;5023893;28;20084;-77
2022/12/24 01:10:04;;;;;;;33.45;16.98;;;6.50;99.90;;;;;;5042708;28;20078;-77
2022/12/24 01:12:30;;;;;;;36.08;17.30;;;6.50;99.90;;;;;;5063029;28;20083;-77
2022/12/24 01:14:56;;;;;;;29.65;15.52;;;6.50;99.90;;;;;;5062647;28;20150;-77
2022/12/24 01:17:21;;;;;;;36.88;16.38;;;6.50;99.90;;;;;;5057870;28;20123;-76
2022/12/24 01:19:47;;;;;;;34.90;17.73;;;6.50;99.90;;;;;;5076004;28;20135;-77
2022/12/24 01:22:13;;;;;;;35.00;15.70;;;6.40;99.90;;;;;;5077210;28;20469;-76
2022/12/24 01:24:40;;;;;;;35.20;16.45;;;6.50;99.90;;;;;;5063072;28;20050;-76
2022/12/24 01:27:06;;;;;;;35.38;17.55;;;6.50;99.90;;;;;;5059300;28;20040;-76
2022/12/24 01:29:32;;;;;;;32.60;16.50;;;6.50;99.90;;;;;;5062755;28;20044;-77
2022/12/24 01:31:58;;;;;;;33.25;16.77;;;6.50;99.90;;;;;;5060302;28;20047;-77
2022/12/24 01:34:23;;;;;;;32.58;16.33;;;6.60;99.90;;;;;;5063472;28;20059;-76
2022/12/24 01:36:49;;;;;;;30.13;16.30;;;6.50;99.90;;;;;;5077414;28;20654;-76
2022/12/24 01:39:15;;;;;;;31.75;15.70;;;6.80;99.90;;;;;;5062612;28;20035;-77
2022/12/24 01:44:33;;;;;;;32.08;15.30;;;6.50;99.90;;;;;;5052661;28;20417;-77
2022/12/24 01:47:23;;;;;;;33.33;16.67;;;6.70;99.90;;;;;;5077250;28;20085;-77
2022/12/24 01:49:54;;;;;;;34.95;16.40;;;6.50;99.90;;;;;;5046261;28;20094;-77
2022/12/24 01:52:23;;;;;;;38.90;16.13;;;6.50;99.90;;;;;;5063751;28;20043;-77
2022/12/24 01:55:12;;;;;;;34.60;16.77;;;6.60;99.90;;;;;;5054920;28;20040;-77
2022/12/24 01:57:44;;;;;;;37.90;16.85;;;6.50;99.90;;;;;;5057079;28;20080;-77
2022/12/24 02:00:12;;;;;;;38.08;17.00;;;6.50;99.90;;;;;;5040008;28;20136;-77
2022/12/24 02:02:40;;;;;;;47.95;18.52;;;6.50;99.90;;;;;;5068610;28;20542;-77
2022/12/24 02:05:20;;;;;;;33.20;16.58;;;6.60;99.90;;;;;;5052905;28;20055;-77
2022/12/24 02:07:46;;;;;;;39.17;17.40;;;6.50;99.90;;;;;;5074510;28;20041;-77
2022/12/24 02:10:13;;;;;;;33.47;16.65;;;6.60;99.90;;;;;;5055943;28;20062;-77
2022/12/24 02:12:40;;;;;;;32.38;16.23;;;6.50;99.90;;;;;;5036649;28;20056;-77
2022/12/24 02:15:11;;;;;;;34.22;16.73;;;6.60;99.90;;;;;;5064787;28;20044;-77
2022/12/24 02:17:40;;;;;;;36.83;17.33;;;6.50;99.90;;;;;;5078114;28;20740;-77
2022/12/24 02:20:36;;;;;;;39.67;17.13;;;6.60;99.90;;;;;;5060167;28;20056;-77
2022/12/24 02:23:20;;;;;;;37.08;17.13;;;6.60;99.90;;;;;;5058957;28;20048;-77
2022/12/24 02:26:23;;;;;;;41.25;18.63;;;6.60;99.90;;;;;;5055187;28;20052;-77
2022/12/24 02:29:16;;;;;;;38.67;17.92;;;6.60;99.90;;;;;;5040115;28;20051;-77
2022/12/24 02:32:00;;;;;;;37.17;17.85;;;6.60;99.90;;;;;;5060340;28;20755;-76
2022/12/24 02:34:35;;;;;;;36.45;17.30;;;6.60;99.90;;;;;;5043363;28;20041;-76
2022/12/24 02:37:13;;;;;;;39.15;17.48;;;6.60;99.90;;;;;;5074602;28;20040;-76
2022/12/24 02:39:42;;;;;;;34.80;17.83;;;6.60;99.90;;;;;;5076408;28;20139;-76
2022/12/24 02:42:11;;;;;;;32.60;17.40;;;6.60;99.90;;;;;;5054195;28;20412;-76
2022/12/24 02:44:51;;;;;;;38.50;18.95;;;6.60;99.90;;;;;;5035580;28;20078;-76
2022/12/24 02:47:19;;;;;;;37.83;18.30;;;6.70;99.90;;;;;;5042925;28;20372;-75
2022/12/24 02:49:46;;;;;;;37.72;18.88;;;6.70;99.90;;;;;;5072911;28;20044;-76
2022/12/24 02:52:32;;;;;;;33.85;17.13;;;6.70;99.90;;;;;;5052473;28;20097;-75
2022/12/24 02:55:05;;;;;;;38.42;18.70;;;6.70;99.90;;;;;;5039425;28;20044;-76
2022/12/24 02:57:55;;;;;;;36.90;18.60;;;6.70;99.90;;;;;;5043551;28;20078;-77
2022/12/24 03:00:22;;;;;;;37.78;17.98;;;6.70;99.90;;;;;;5047701;28;20067;-74
2022/12/24 03:02:54;;;;;;;39.05;19.10;;;6.80;99.90;;;;;;5057327;28;20048;-76
2022/12/24 03:05:22;;;;;;;34.72;18.27;;;6.80;99.90;;;;;;5055799;28;20386;-76
2022/12/24 03:07:51;;;;;;;34.03;17.80;;;6.80;99.90;;;;;;5039051;28;20068;-75
2022/12/24 03:10:30;;;;;;;38.15;17.60;;;6.90;99.90;;;;;;5054158;28;20051;-76
2022/12/24 03:13:04;;;;;;;35.13;16.88;;;6.90;99.90;;;;;;5034823;28;20076;-75
2022/12/24 03:15:31;;;;;;;34.33;15.43;;;6.90;99.90;;;;;;5039446;28;20146;-75
2022/12/24 03:17:59;;;;;;;33.08;14.80;;;7.00;99.90;;;;;;5030546;28;20051;-75
2022/12/24 03:20:35;;;;;;;37.40;14.93;;;7.00;99.90;;;;;;5071817;28;20067;-75
2022/12/24 03:23:02;;;;;;;32.47;14.80;;;7.10;99.90;;;;;;5066903;28;20048;-75
2022/12/24 03:25:28;;;;;;;35.58;14.25;;;7.20;99.90;;;;;;5033021;28;20051;-75
2022/12/24 03:27:56;;;;;;;28.05;13.43;;;7.20;99.90;;;;;;5058859;28;20620;-74
2022/12/24 03:30:21;;;;;;;35.70;13.90;;;7.20;99.90;;;;;;5068975;28;20036;-75
2022/12/24 03:32:47;;;;;;;38.70;12.30;;;7.20;99.90;;;;;;5066742;28;20443;-75
2022/12/24 03:35:13;;;;;;;29.58;13.10;;;7.30;99.90;;;;;;5060731;28;20855;-74
2022/12/24 03:37:39;;;;;;;26.65;12.10;;;7.30;99.90;;;;;;5042330;28;20472;-74
2022/12/24 03:40:07;;;;;;;31.73;12.25;;;7.30;99.90;;;;;;5053277;28;20051;-74
2022/12/24 03:42:33;;;;;;;36.28;12.23;;;7.40;99.90;;;;;;5071605;28;20040;-75
2022/12/24 03:44:58;;;;;;;34.10;12.40;;;7.40;99.90;;;;;;5047959;28;20118;-74
2022/12/24 03:47:24;;;;;;;33.53;12.50;;;7.30;99.90;;;;;;5075850;28;20388;-75
2022/12/24 03:49:50;;;;;;;30.98;12.60;;;7.40;99.90;;;;;;5067813;28;20036;-75
2022/12/24 03:52:15;;;;;;;34.60;12.30;;;7.80;99.90;;;;;;5067771;28;20047;-74
2022/12/24 03:54:41;;;;;;;32.72;12.50;;;7.40;99.90;;;;;;5055079;28;20090;-74
2022/12/24 03:57:07;;;;;;;33.08;13.02;;;7.40;99.90;;;;;;5068127;28;20397;-75
2022/12/24 03:59:33;;;;;;;31.88;11.98;;;7.40;99.90;;;;;;5056756;28;20059;-75
2022/12/24 04:01:58;;;;;;;29.67;11.45;;;7.40;99.90;;;;;;5058644;28;20155;-75
2022/12/24 04:04:24;;;;;;;37.55;11.15;;;7.50;99.90;;;;;;5055652;28;20484;-75
2022/12/24 04:06:50;;;;;;;40.17;10.95;;;7.50;99.90;;;;;;5066673;28;20040;-75
2022/12/24 04:09:15;;;;;;;44.08;12.52;;;7.50;99.90;;;;;;5035440;28;20045;-75
2022/12/24 04:11:41;;;;;;;29.45;9.60;;;7.60;99.90;;;;;;5043361;28;20139;-74
2022/12/24 04:14:07;;;;;;;33.97;9.30;;;7.60;99.90;;;;;;5019973;28;20056;-75
2022/12/24 04:16:32;;;;;;;42.70;10.05;;;7.70;99.90;;;;;;5018942;28;20090;-75
2022/12/24 04:18:58;;;;;;;40.42;8.35;;;7.70;99.90;;;;;;5023480;28;20051;-75
2022/12/24 04:21:24;;;;;;;46.22;8.23;;;7.70;99.90;;;;;;5049647;28;20044;-76
2022/12/24 04:23:50;;;;;;;46.85;6.95;;;7.70;99.90;;;;;;5028647;28;20128;-75
2022/12/24 04:26:16;;;;;;;45.95;6.95;;;7.70;99.90;;;;;;5019745;28;20044;-76
2022/12/24 04:28:42;;;;;;;46.88;6.00;;;7.80;99.90;;;;;;5046304;28;20040;-77
2022/12/24 04:31:12;;;;;;;33.88;6.05;;;7.80;99.90;;;;;;5036506;28;20052;-75
2022/12/24 04:33:40;;;;;;;41.25;6.47;;;7.70;99.90;;;;;;5030650;28;20037;-75
2022/12/24 04:36:07;;;;;;;51.70;5.60;;;7.70;99.90;;;;;;5047432;28;20041;-74
2022/12/24 04:38:34;;;;;;;52.40;5.85;;;7.70;99.90;;;;;;5048955;28;20131;-76
2022/12/24 04:41:21;;;;;;;44.10;5.53;;;7.70;99.90;;;;;;5007468;28;20037;-76
2022/12/24 04:43:47;;;;;;;49.38;5.47;;;7.70;99.90;;;;;;5020783;28;20049;-76
2022/12/24 04:46:17;;;;;;;46.08;6.22;;;7.80;99.90;;;;;;5031464;28;20043;-75
2022/12/24 04:48:44;;;;;;;47.75;5.30;;;7.70;99.90;;;;;;5020142;28;20402;-75
2022/12/24 04:51:10;;;;;;;59.55;5.72;;;7.70;99.90;;;;;;5008661;28;20643;-74
2022/12/24 04:53:40;;;;;;;42.58;5.03;;;7.70;99.90;;;;;;5028603;28;20071;-75
2022/12/24 04:56:10;;;;;;;52.60;6.05;;;7.70;99.90;;;;;;5046841;28;20055;-75
2022/12/24 04:58:36;;;;;;;39.22;5.05;;;7.70;99.90;;;;;;5032529;28;20061;-74
2022/12/24 05:01:04;;;;;;;53.17;5.55;;;7.70;99.90;;;;;;5024556;28;20626;-75
2022/12/24 05:03:30;;;;;;;49.10;5.32;;;7.70;99.90;;;;;;5047098;28;20151;-74
2022/12/24 05:06:08;;;;;;;55.15;5.63;;;7.70;99.90;;;;;;5011968;28;20573;-74
2022/12/24 05:08:34;;;;;;;38.72;5.80;;;7.70;99.90;;;;;;5011748;28;20072;-74
2022/12/24 05:11:01;;;;;;;50.38;5.38;;;7.70;99.90;;;;;;5039795;28;20060;-74
2022/12/24 05:13:27;;;;;;;49.13;5.05;;;7.70;99.90;;;;;;5049108;28;20044;-74
2022/12/24 05:15:53;;;;;;;50.17;4.80;;;7.70;99.90;;;;;;5066998;28;20040;-74
2022/12/24 05:18:19;;;;;;;56.63;5.18;;;7.70;99.90;;;;;;5057153;28;20143;-75
2022/12/24 05:20:46;;;;;;;52.28;5.45;;;7.70;99.90;;;;;;5064315;28;20051;-75
2022/12/24 05:26:22;;;;;;;50.75;5.97;;;7.70;99.90;;;;;;5051492;28;20455;-75
2022/12/24 05:28:53;;;;;;;53.15;5.85;;;7.70;99.90;;;;;;5060941;28;20565;-74
2022/12/24 05:31:19;;;;;;;61.38;6.95;;;7.70;99.90;;;;;;5042410;28;20083;-74
2022/12/24 05:33:45;;;;;;;41.75;4.75;;;7.70;99.90;;;;;;5057624;28;20081;-74
2022/12/24 05:36:11;;;;;;;47.90;4.70;;;7.70;99.90;;;;;;5070228;28;20048;-76
2022/12/24 05:38:37;;;;;;;54.88;6.28;;;7.70;99.90;;;;;;5050234;28;20079;-74
2022/12/24 05:41:03;;;;;;;45.97;5.60;;;7.70;99.90;;;;;;5053193;28;20048;-74
2022/12/24 05:43:30;;;;;;;47.25;7.03;;;7.80;99.90;;;;;;5071743;28;20069;-75
2022/12/24 05:46:00;;;;;;;43.85;4.80;;;7.70;99.90;;;;;;5039450;28;20488;-74
2022/12/24 05:48:26;;;;;;;36.05;4.20;;;8.20;99.90;;;;;;5049561;28;20051;-75
2022/12/24 05:50:53;;;;;;;50.60;4.82;;;7.80;99.90;;;;;;5061027;28;20049;-73
2022/12/24 05:53:19;;;;;;;59.13;5.45;;;7.80;99.90;;;;;;5055122;28;20098;-75
2022/12/24 05:55:45;;;;;;;49.05;4.82;;;7.80;99.90;;;;;;5071109;28;20041;-74
2022/12/24 05:58:11;;;;;;;53.10;6.07;;;7.80;99.90;;;;;;5067192;28;20029;-74
2022/12/24 06:00:37;;;;;;;52.45;5.75;;;7.80;99.90;;;;;;5046106;28;20103;-75
2022/12/24 06:03:02;;;;;;;57.55;5.28;;;7.80;99.90;;;;;;5073882;28;20036;-74
2022/12/24 06:05:28;;;;;;;59.53;6.47;;;7.80;99.90;;;;;;5036833;28;20205;-75
2022/12/24 06:07:54;;;;;;;50.72;5.75;;;7.80;99.90;;;;;;5034779;28;20165;-74
2022/12/24 06:10:20;;;;;;;42.35;5.15;;;7.80;99.90;;;;;;5056959;28;20094;-75
2022/12/24 06:12:45;;;;;;;70.60;6.03;;;7.80;99.90;;;;;;5055688;28;20048;-74
2022/12/24 06:15:11;;;;;;;46.97;6.13;;;7.80;99.90;;;;;;5056559;28;20075;-74
2022/12/24 06:17:37;;;;;;;52.75;5.65;;;7.80;99.90;;;;;;5042888;28;20067;-74
2022/12/24 06:20:04;;;;;;;43.97;5.22;;;7.80;99.90;;;;;;5049362;28;20052;-74
2022/12/24 06:22:30;;;;;;;51.10;5.45;;;7.80;99.90;;;;;;5033705;28;20055;-74
2022/12/24 06:24:55;;;;;;;49.08;6.32;;;7.80;99.90;;;;;;5067846;28;20040;-74
2022/12/24 06:27:21;;;;;;;44.83;6.10;;;7.80;99.90;;;;;;5070529;28;20036;-74
2022/12/24 06:29:47;;;;;;;62.35;5.95;;;7.80;99.90;;;;;;5071607;28;20516;-74
2022/12/24 06:32:13;;;;;;;49.75;6.70;;;7.90;99.90;;;;;;5055268;28;20168;-74
2022/12/24 06:34:38;;;;;;;49.15;5.38;;;7.80;99.90;;;;;;5067848;28;20189;-74
2022/12/24 06:37:04;;;;;;;45.50;5.63;;;7.90;99.90;;;;;;5031903;28;20453;-74
2022/12/24 06:39:30;;;;;;;49.65;5.57;;;7.90;99.90;;;;;;5049199;28;20047;-74
2022/12/24 06:41:55;;;;;;;45.67;6.05;;;7.90;99.90;;;;;;5038810;28;20049;-73
2022/12/24 06:44:21;;;;;;;44.50;6.03;;;7.90;99.90;;;;;;5051606;28;20071;-74
2022/12/24 06:46:47;;;;;;;45.53;4.90;;;7.90;99.90;;;;;;5053838;28;20040;-74
2022/12/24 06:49:13;;;;;;;46.05;5.40;;;7.90;99.90;;;;;;5050051;28;20036;-73
2022/12/24 06:51:38;;;;;;;46.85;5.13;;;7.90;99.90;;;;;;5047505;28;20043;-74
2022/12/24 06:54:04;;;;;;;49.28;5.38;;;7.90;99.90;;;;;;5069758;28;20105;-74
2022/12/24 06:56:30;;;;;;;60.40;6.18;;;7.90;99.90;;;;;;5049140;28;20128;-74
2022/12/24 06:58:55;;;;;;;50.75;5.05;;;7.90;99.90;;;;;;5059217;28;20040;-74
2022/12/24 07:01:23;;;;;;;60.22;7.75;;;7.90;99.90;;;;;;5045147;28;20051;-73
2022/12/24 07:03:48;;;;;;;54.90;5.88;;;7.90;99.90;;;;;;5056470;28;20807;-73
2022/12/24 07:06:23;;;;;;;57.20;5.63;;;7.90;99.90;;;;;;5048055;28;20074;-74
2022/12/24 07:08:48;;;;;;;47.08;5.38;;;7.90;99.90;;;;;;5034882;28;20502;-74
2022/12/24 07:11:14;;;;;;;39.20;4.82;;;8.20;99.90;;;;;;5067916;28;20055;-74
2022/12/24 07:13:40;;;;;;;40.45;5.00;;;7.90;99.90;;;;;;5051604;28;20060;-74
2022/12/24 07:16:06;;;;;;;52.80;4.78;;;8.00;99.90;;;;;;5054129;28;20054;-73
2022/12/24 07:18:32;;;;;;;49.70;5.40;;;7.90;99.90;;;;;;5070124;28;20094;-74
2022/12/24 07:20:58;;;;;;;50.63;5.97;;;8.20;99.90;;;;;;5049102;28;20048;-74
2022/12/24 07:23:24;;;;;;;49.60;5.65;;;7.90;99.90;;;;;;5067850;28;20043;-74
2022/12/24 07:25:50;;;;;;;49.15;5.45;;;7.90;99.90;;;;;;5048210;28;20447;-74
2022/12/24 07:28:16;;;;;;;51.97;5.80;;;7.90;99.90;;;;;;5041199;28;20047;-74
2022/12/24 07:30:42;;;;;;;48.08;5.70;;;7.90;99.90;;;;;;5070980;28;20055;-74
2022/12/24 07:33:08;;;;;;;35.33;4.60;;;8.20;99.90;;;;;;5051792;28;20420;-74
2022/12/24 07:35:33;;;;;;;44.90;4.75;;;7.90;99.90;;;;;;5067536;28;20048;-73
2022/12/24 07:38:00;;;;;;;42.80;5.80;;;7.90;99.90;;;;;;5050474;28;20097;-73
2022/12/24 07:40:26;;;;;;;39.67;5.18;;;7.90;99.90;;;;;;5047830;28;20105;-74
2022/12/24 07:42:52;;;;;;;40.85;4.68;;;8.00;99.90;;;;;;5051518;28;20079;-74
2022/12/24 07:45:17;;;;;;;55.35;6.05;;;7.90;99.90;;;;;;5033862;28;20097;-74
2022/12/24 07:47:43;;;;;;;48.85;5.25;;;7.90;99.90;;;;;;5049438;28;20849;-73
2022/12/24 07:50:09;;;;;;;47.38;5.50;;;7.90;99.90;;;;;;5054105;28;20052;-74
2022/12/24 07:52:35;;;;;;;42.17;4.63;;;7.90;99.90;;;;;;5056413;28;20040;-74
2022/12/24 07:55:00;;;;;;;39.90;4.55;;;7.90;99.90;;;;;;5050277;28;20067;-75
2022/12/24 07:57:26;;;;;;;41.95;5.43;;;7.90;99.90;;;;;;5066857;28;20043;-74
2022/12/24 07:59:52;;;;;;;37.85;5.45;;;7.90;99.90;;;;;;5051431;28;21226;-75
2022/12/24 08:02:17;;;;;;;42.80;5.00;;;7.90;99.90;;;;;;5038184;28;20167;-74
2022/12/24 08:04:43;;;;;;;33.25;4.53;;;8.00;99.90;;;;;;5055910;28;20071;-74
2022/12/24 08:07:09;;;;;;;52.92;5.63;;;7.90;99.90;;;;;;5052866;28;20047;-74
2022/12/24 08:09:36;;;;;;;35.58;4.78;;;7.60;99.90;;;;;;5054186;28;20089;-74
2022/12/24 08:12:03;;;;;;;40.72;5.18;;;8.00;99.90;;;;;;5033756;28;20140;-74
2022/12/24 08:14:29;;;;;;;47.40;5.50;;;7.90;99.90;;;;;;5034335;28;20049;-74
2022/12/24 08:16:56;;;;;;;55.45;6.53;;;7.90;99.90;;;;;;5019078;28;20135;-73
2022/12/24 08:19:22;;;;;;;52.13;5.93;;;8.00;99.90;;;;;;5030742;28;20040;-74
2022/12/24 08:21:48;;;;;;;46.03;6.13;;;8.00;99.90;;;;;;5016817;28;20414;-73
2022/12/24 08:24:13;;;;;;;42.53;5.32;;;8.00;99.90;;;;;;5050410;28;20040;-73
2022/12/24 08:26:39;;;;;;;45.25;5.43;;;8.00;99.90;;;;;;5026213;28;20040;-74
2022/12/24 08:29:05;;;;;;;43.85;6.80;;;8.00;99.90;;;;;;5018272;28;20044;-74
2022/12/24 08:31:35;;;;;;;54.70;5.72;;;8.00;99.90;;;;;;5036509;28;20040;-74
2022/12/24 08:34:06;;;;;;;50.45;5.85;;;8.00;99.90;;;;;;5013326;28;20048;-74
2022/12/24 08:36:32;;;;;;;40.85;5.80;;;8.00;99.90;;;;;;5026956;28;20041;-73
2022/12/24 08:38:58;;;;;;;46.92;5.88;;;8.00;99.90;;;;;;5050688;28;20523;-73
2022/12/24 08:41:24;;;;;;;40.25;5.32;;;7.70;99.90;;;;;;5011218;28;20072;-73
2022/12/24 08:43:49;;;;;;;46.88;5.88;;;8.00;99.90;;;;;;5040328;28;20052;-74
2022/12/24 08:46:16;;;;;;;36.17;5.40;;;8.00;99.90;;;;;;5034033;28;20049;-73
2022/12/24 08:48:42;;;;;;;59.05;7.35;;;8.00;99.90;;;;;;5053660;28;20805;-74
2022/12/24 08:51:09;;;;;;;43.90;5.75;;;8.00;99.90;;;;;;5049094;28;20040;-73
2022/12/24 08:53:35;;;;;;;47.17;5.78;;;8.00;99.90;;;;;;5017245;28;20587;-73
2022/12/24 08:56:06;;;;;;;49.47;4.90;;;8.00;99.90;;;;;;5026984;28;20041;-73
2022/12/24 08:58:32;;;;;;;41.95;5.63;;;8.00;99.90;;;;;;5019866;28;20130;-73
2022/12/24 09:00:58;;;;;;;48.58;5.50;;;8.00;99.90;;;;;;5029759;28;20654;-73
2022/12/24 09:03:24;;;;;;;34.00;4.80;;;8.00;99.90;;;;;;5054032;28;20072;-73
2022/12/24 09:05:53;;;;;;;51.60;6.05;;;8.00;99.90;;;;;;5036094;28;20130;-73
2022/12/24 09:08:20;;;;;;;39.80;5.22;;;8.10;99.90;;;;;;5057549;28;20051;-73
2022/12/24 09:10:45;;;;;;;52.17;6.30;;;8.10;99.90;;;;;;5037655;28;20185;-74
2022/12/24 09:13:11;;;;;;;33.58;5.03;;;8.10;99.90;;;;;;5054886;28;20773;-74
2022/12/24 09:15:40;;;;;;;39.72;6.53;;;8.10;99.90;;;;;;5071260;28;20036;-73
2022/12/24 09:18:06;;;;;;;45.97;5.70;;;8.10;99.90;;;;;;5056285;28;20151;-74
2022/12/24 09:20:31;;;;;;;48.67;7.05;;;8.10;99.90;;;;;;5055381;28;20440;-74
2022/12/24 09:22:57;;;;;;;58.25;6.57;;;8.10;99.90;;;;;;5076376;28;20051;-73
2022/12/24 09:25:23;;;;;;;46.13;6.18;;;8.10;99.90;;;;;;5056490;28;20501;-74
2022/12/24 09:27:48;;;;;;;44.88;5.90;;;8.10;99.90;;;;;;5042178;28;20130;-73
2022/12/24 09:30:14;;;;;;;41.00;5.20;;;8.20;99.90;;;;;;5061298;28;21448;-74
2022/12/24 09:32:40;;;;;;;37.50;5.57;;;8.20;99.90;;;;;;5037953;28;20127;-73
2022/12/24 09:35:06;;;;;;;41.13;6.15;;;8.20;99.90;;;;;;5055025;28;20071;-74
2022/12/24 09:37:32;;;;;;;38.92;5.13;;;8.20;99.90;;;;;;5058016;28;20048;-74
2022/12/24 09:39:57;;;;;;;47.45;5.68;;;8.20;99.90;;;;;;5059017;28;20127;-74
2022/12/24 09:42:39;;;;;;;41.65;5.03;;;8.20;99.90;;;;;;5041161;28;20101;-74
2022/12/24 09:45:21;;;;;;;37.05;6.47;;;8.30;99.90;;;;;;5079420;28;20044;-74
2022/12/24 09:47:50;;;;;;;41.40;5.70;;;8.30;99.90;;;;;;5055521;28;20052;-73
2022/12/24 09:50:39;;;;;;;39.97;5.60;;;8.30;99.90;;;;;;5062628;28;20121;-74
2022/12/24 09:53:32;;;;;;;43.67;5.28;;;8.30;99.90;;;;;;5013057;28;20052;-73
2022/12/24 09:56:01;;;;;;;39.55;5.15;;;8.40;99.90;;;;;;5048714;28;20447;-74
2022/12/24 09:58:33;;;;;;;45.33;5.25;;;8.40;99.90;;;;;;5034672;28;20748;-73
2022/12/24 10:00:59;;;;;;;45.88;5.70;;;8.40;99.90;;;;;;5042523;28;20047;-73
2022/12/24 10:03:24;;;;;;;38.10;5.25;;;8.40;99.90;;;;;;5072377;28;20793;-73
2022/12/24 10:06:00;;;;;;;51.13;5.68;;;8.40;99.90;;;;;;5054674;28;20830;-73
2022/12/24 10:08:35;;;;;;;45.00;4.88;;;8.50;99.90;;;;;;5027982;28;20054;-73
2022/12/24 10:11:18;;;;;;;45.33;6.15;;;8.50;99.90;;;;;;5073795;28;20909;-74
2022/12/24 10:14:08;;;;;;;41.83;5.05;;;8.50;99.90;;;;;;5043284;28;20060;-75
2022/12/24 10:16:55;;;;;;;41.72;5.25;;;8.50;99.90;;;;;;5041805;28;20079;-74
2022/12/24 10:19:29;;;;;;;45.72;5.32;;;8.60;99.90;;;;;;5061683;28;20043;-74
2022/12/24 10:22:01;;;;;;;52.75;5.93;;;8.60;99.90;;;;;;5043228;28;20052;-74
2022/12/24 10:24:44;;;;;;;41.50;6.38;;;8.70;99.90;;;;;;5025951;28;20285;-73
2022/12/24 10:27:14;;;;;;;44.22;6.22;;;8.70;99.90;;;;;;5047115;28;20789;-73
2022/12/24 10:29:45;;;;;;;42.50;5.43;;;8.80;99.90;;;;;;5062414;28;20040;-74
2022/12/24 10:32:23;;;;;;;44.00;5.28;;;8.80;99.90;;;;;;5064044;28;20143;-72
2022/12/24 10:35:12;;;;;;;50.97;5.75;;;8.80;99.90;;;;;;5044439;28;20098;-74
2022/12/24 10:37:39;;;;;;;42.90;5.20;;;8.80;99.90;;;;;;5050852;28;20043;-74
2022/12/24 10:40:05;;;;;;;48.15;5.82;;;8.90;99.90;;;;;;5051143;28;20408;-72
2022/12/24 10:42:41;;;;;;;48.10;6.50;;;8.90;99.90;;;;;;5046451;28;20090;-74
2022/12/24 10:45:15;;;;;;;41.55;6.10;;;8.90;99.90;;;;;;5066564;28;20086;-74
2022/12/24 10:47:44;;;;;;;55.15;7.57;;;8.90;99.90;;;;;;5033645;28;20519;-74
2022/12/24 10:50:20;;;;;;;41.47;5.88;;;9.00;99.90;;;;;;5037796;28;20044;-73
2022/12/24 10:52:48;;;;;;;46.35;6.07;;;9.00;99.90;;;;;;5033308;28;20345;-76
2022/12/24 10:55:17;;;;;;;45.85;6.07;;;9.00;99.90;;;;;;5043901;28;20044;-74
2022/12/24 10:57:45;;;;;;;41.30;5.40;;;9.00;99.90;;;;;;5030240;28;20127;-74
2022/12/24 11:00:20;;;;;;;36.72;5.57;;;9.10;99.90;;;;;;5046548;28;20079;-75
2022/12/24 11:02:47;;;;;;;39.55;5.60;;;9.10;99.90;;;;;;5043495;28;20054;-72
2022/12/24 11:05:31;;;;;;;42.70;4.93;;;9.10;99.90;;;;;;5024558;28;20051;-76
2022/12/24 11:08:17;;;;;;;51.20;6.07;;;9.10;99.90;;;;;;5068239;28;20176;-74
2022/12/24 11:11:07;;;;;;;38.45;5.25;;;9.10;99.90;;;;;;5056531;28;20727;-73
2022/12/24 11:13:56;;;;;;;46.47;5.43;;;9.10;99.90;;;;;;5038686;28;20162;-74
2022/12/24 11:16:35;;;;;;;31.92;5.25;;;9.10;99.90;;;;;;5066141;28;20419;-74
2022/12/24 11:19:04;;;;;;;32.25;4.75;;;9.20;99.90;;;;;;5052158;28;20055;-73
2022/12/24 11:21:34;;;;;;;30.25;4.53;;;9.20;99.90;;;;;;5048170;28;20045;-74
2022/12/24 11:24:26;;;;;;;37.20;4.80;;;9.20;99.90;;;;;;5044659;28;20148;-74
2022/12/24 11:26:52;;;;;;;34.67;5.18;;;9.20;99.90;;;;;;5048499;28;20060;-74
2022/12/24 11:29:27;;;;;;;36.40;4.50;;;9.40;99.90;;;;;;5046532;28;20036;-73
2022/12/24 11:32:29;;;;;;;36.63;5.07;;;9.20;99.90;;;;;;5045119;28;20516;-73
2022/12/24 11:34:55;;;;;;;35.05;4.60;;;9.20;99.90;;;;;;5036874;28;20144;-73
2022/12/24 11:37:23;;;;;;;40.33;4.75;;;9.20;99.90;;;;;;5045561;28;20432;-74
2022/12/24 11:39:54;;;;;;;27.30;4.72;;;9.00;99.90;;;;;;5055340;28;20151;-73
2022/12/24 11:42:36;;;;;;;39.55;4.95;;;9.20;99.90;;;;;;5040015;28;20052;-73
2022/12/24 11:45:07;;;;;;;37.47;5.38;;;9.20;99.90;;;;;;5043927;28;20045;-74
2022/12/24 11:47:39;;;;;;;35.80;5.35;;;9.20;99.90;;;;;;5039476;28;20116;-73
2022/12/24 11:50:22;;;;;;;;;;;9.20;99.90;;;;;;5046558;28;20592;-73
2022/12/24 11:53:19;;;;;;;33.42;4.35;;;9.20;99.90;;;;;;5045222;28;19932;-74
2022/12/24 11:55:55;;;;;;;26.58;4.97;;;9.20;99.90;;;;;;5048385;28;20528;-73
2022/12/24 11:58:43;;;;;;;34.10;5.22;;;9.10;99.90;;;;;;5032843;28;20201;-73
2022/12/24 12:01:47;;;;;;;36.38;5.03;;;9.20;99.90;;;;;;5045809;28;20041;-73
2022/12/24 12:04:15;;;;;;;37.35;5.35;;;9.20;99.90;;;;;;5048659;28;20147;-69
2022/12/24 12:06:49;;;;;;;33.35;4.72;;;9.10;99.90;;;;;;5028192;28;20056;-71
2022/12/24 12:09:18;;;;;;;39.67;5.22;;;9.10;99.90;;;;;;5057733;28;21578;-71
2022/12/24 12:11:49;;;;;;;29.15;4.15;;;9.10;99.90;;;;;;5056285;28;20079;-69
2022/12/24 12:14:52;;;;;;;36.92;4.70;;;9.10;99.90;;;;;;5034754;28;20067;-71
2022/12/24 12:17:50;;;;;;;30.65;3.65;;;9.10;99.90;;;;;;5038493;28;20044;-70
2022/12/24 12:20:28;;;;;;;23.70;3.58;;;9.10;99.90;;;;;;5066015;28;20444;-70
2022/12/24 12:23:00;;;;;;;28.90;4.85;;;9.10;99.90;;;;;;5040591;28;20051;-71
2022/12/24 12:25:43;;;;;;;21.20;3.40;;;9.10;99.90;;;;;;5050331;28;20151;-71
2022/12/24 12:28:44;;;;;;;31.02;4.50;;;9.10;99.90;;;;;;5046392;28;20161;-71
2022/12/24 12:31:31;;;;;;;32.92;4.10;;;9.10;99.90;;;;;;5063161;28;20062;-71
2022/12/24 12:34:21;;;;;;;38.90;5.05;;;9.10;99.90;;;;;;5050175;28;20603;-71
2022/12/24 12:37:13;;;;;;;35.00;5.00;;;9.10;99.90;;;;;;5031867;28;21087;-71
2022/12/24 12:39:39;;;;;;;28.15;4.15;;;9.10;99.90;;;;;;5058849;28;20052;-71
2022/12/24 12:42:18;;;;;;;32.25;4.47;;;9.10;99.90;;;;;;5063131;28;20079;-69
2022/12/24 12:45:02;;;;;;;24.45;4.20;;;9.10;99.90;;;;;;5049375;28;20049;-71
2022/12/24 12:48:03;;;;;;;30.70;4.50;;;9.30;99.90;;;;;;5031578;28;20056;-72
2022/12/24 12:50:35;;;;;;;34.10;4.53;;;9.10;99.90;;;;;;5040162;28;20381;-71
2022/12/24 12:53:29;;;;;;;26.70;4.07;;;9.30;99.90;;;;;;5071620;28;20052;-71
2022/12/24 12:56:24;;;;;;;25.42;4.22;;;9.20;99.90;;;;;;5065214;28;20040;-72
2022/12/24 12:59:17;;;;;;;28.73;4.28;;;9.20;99.90;;;;;;5045596;28;20071;-71
2022/12/24 13:01:49;;;;;;;31.10;3.58;;;9.10;99.90;;;;;;5044219;28;20223;-71
2022/12/24 13:04:42;;;;;;;;;;;9.20;99.90;;;;;;5060343;28;20041;-70
2022/12/24 13:07:42;;;;;;;29.33;4.00;;;9.10;99.90;;;;;;5053296;28;19924;-71